Time;durP1;ratioP1;P1;durP2;ratioP2;P2;SDS_P1;SDS_P2;PMS_P1;PMS_P2;Temp;Humidity;BMP_temperature;BMP_pressure;BME280_temperature;BME280_humidity;BME280_pressure;Samples;Min_cycle;Max_cycle;Signal;HPM_P1;HPM_P2
2022/06/09 00:01:50;;;;;;;3.43;0.90;;;15.70;99.90;;;;;;5052200;28;20208;-37
2022/06/09 00:04:18;;;;;;;1.10;0.80;;;15.60;99.90;;;;;;5036508;28;20282;-35
2022/06/09 00:07:00;;;;;;;3.40;1.10;;;15.60;99.90;;;;;;5037279;28;20265;-35
2022/06/09 00:09:31;;;;;;;2.43;0.70;;;15.60;99.90;;;;;;5071774;28;20176;-36
2022/06/09 00:11:57;;;;;;;3.80;0.80;;;15.60;99.90;;;;;;5053670;28;20262;-37
2022/06/09 00:14:23;;;;;;;0.80;0.80;;;15.70;99.90;;;;;;5036677;28;20216;-40
2022/06/09 00:16:49;;;;;;;2.70;0.90;;;15.70;99.90;;;;;;5037242;28;20274;-35
2022/06/09 00:19:18;;;;;;;1.00;0.90;;;15.70;99.90;;;;;;5071834;28;20227;-35
2022/06/09 00:21:44;;;;;;;0.80;0.80;;;15.80;99.90;;;;;;5036830;28;20205;-35
2022/06/09 00:24:10;;;;;;;1.90;0.80;;;15.80;99.90;;;;;;5036601;28;20184;-35
2022/06/09 00:26:36;;;;;;;0.80;0.80;;;15.80;99.90;;;;;;5033258;28;20209;-35
2022/06/09 00:29:03;;;;;;;2.57;0.83;;;15.80;99.90;;;;;;5051608;28;20201;-36
2022/06/09 00:31:29;;;;;;;1.50;0.73;;;15.80;99.90;;;;;;5033492;28;20311;-35
2022/06/09 00:33:55;;;;;;;0.70;0.70;;;15.80;99.90;;;;;;5033232;28;20232;-35
2022/06/09 00:36:21;;;;;;;0.80;0.80;;;15.80;99.90;;;;;;5033582;28;20209;-34
2022/06/09 00:38:47;;;;;;;0.83;0.70;;;15.80;99.90;;;;;;5016859;28;20194;-35
2022/06/09 00:41:13;;;;;;;1.23;0.80;;;15.80;99.90;;;;;;5033298;28;20205;-36
2022/06/09 00:43:43;;;;;;;1.87;0.80;;;15.80;99.90;;;;;;5033346;28;20226;-37
2022/06/09 00:46:20;;;;;;;1.77;0.70;;;15.70;99.90;;;;;;5033056;28;20205;-35
2022/06/09 00:48:48;;;;;;;2.87;0.90;;;15.70;99.90;;;;;;5033451;28;20173;-37
2022/06/09 00:51:39;;;;;;;2.27;0.90;;;15.60;99.90;;;;;;5016972;28;20240;-34
2022/06/09 00:54:09;;;;;;;2.10;1.10;;;15.60;99.90;;;;;;5016980;28;20186;-37
2022/06/09 00:56:40;;;;;;;0.90;0.87;;;15.60;99.90;;;;;;5033260;28;20216;-35
2022/06/09 00:59:07;;;;;;;3.10;1.03;;;15.60;99.90;;;;;;5033020;28;20189;-34
2022/06/09 01:01:34;;;;;;;1.10;0.90;;;15.70;99.90;;;;;;5032962;28;20221;-35
2022/06/09 01:04:04;;;;;;;1.27;0.93;;;15.70;99.90;;;;;;5050730;28;20178;-35
2022/06/09 01:06:41;;;;;;;1.13;1.00;;;15.60;99.90;;;;;;5032943;28;20287;-35
2022/06/09 01:09:07;;;;;;;1.87;0.90;;;15.60;99.90;;;;;;5033175;28;20188;-35
2022/06/09 01:11:34;;;;;;;1.50;1.00;;;15.60;99.90;;;;;;5049577;28;20185;-35
2022/06/09 01:14:00;;;;;;;1.30;0.90;;;15.60;99.90;;;;;;5032574;28;20220;-35
2022/06/09 01:16:51;;;;;;;0.90;0.90;;;15.60;99.90;;;;;;5032095;28;20570;-35
2022/06/09 01:19:28;;;;;;;1.63;1.00;;;15.60;99.90;;;;;;5033000;28;20324;-36
2022/06/09 01:22:16;;;;;;;1.83;0.90;;;15.60;99.90;;;;;;5032826;28;20232;-34
2022/06/09 01:24:51;;;;;;;3.67;1.00;;;15.60;99.90;;;;;;5053804;28;20197;-35
2022/06/09 01:27:41;;;;;;;1.30;0.80;;;15.50;99.90;;;;;;5070572;28;20183;-34
2022/06/09 01:30:21;;;;;;;0.90;0.90;;;15.50;99.90;;;;;;5052888;28;20189;-35
2022/06/09 01:32:56;;;;;;;2.27;0.80;;;15.50;99.90;;;;;;5036143;28;20325;-35
2022/06/09 01:35:25;;;;;;;0.90;0.60;;;15.40;99.90;;;;;;5052097;28;20236;-35
2022/06/09 01:37:58;;;;;;;2.60;0.90;;;15.40;99.90;;;;;;5052493;28;20272;-35
2022/06/09 01:40:24;;;;;;;0.97;0.70;;;15.40;99.90;;;;;;5036000;28;20209;-35
2022/06/09 01:42:54;;;;;;;3.17;0.90;;;15.30;99.90;;;;;;5036011;28;20230;-37
2022/06/09 01:45:51;;;;;;;0.80;0.80;;;15.30;99.90;;;;;;5035931;28;20626;-38
2022/06/09 01:48:19;;;;;;;2.47;0.90;;;15.20;99.90;;;;;;5035857;28;20177;-35
2022/06/09 01:50:51;;;;;;;1.40;0.87;;;15.20;99.90;;;;;;5035795;28;20181;-35
2022/06/09 01:53:32;;;;;;;1.73;0.93;;;15.20;99.90;;;;;;5035965;28;20260;-38
2022/06/09 01:56:14;;;;;;;1.30;0.90;;;15.10;99.90;;;;;;5037105;28;20221;-37
2022/06/09 01:59:06;;;;;;;0.90;0.80;;;15.10;99.90;;;;;;5032531;28;20190;-36
2022/06/09 02:02:00;;;;;;;2.30;0.70;;;15.20;99.90;;;;;;5050405;28;20572;-37
2022/06/09 02:04:52;;;;;;;0.67;0.60;;;15.20;99.90;;;;;;5050151;28;20174;-39
2022/06/09 02:07:20;;;;;;;0.90;0.60;;;15.20;99.90;;;;;;5015153;28;20239;-37
2022/06/09 02:09:46;;;;;;;1.17;0.60;;;15.20;99.90;;;;;;5032349;28;20174;-36
2022/06/09 02:12:22;;;;;;;0.50;0.50;;;15.10;99.90;;;;;;5032359;28;20178;-36
2022/06/09 02:14:51;;;;;;;0.63;0.60;;;15.10;99.90;;;;;;5015911;28;20193;-35
2022/06/09 02:17:17;;;;;;;0.80;0.70;;;15.00;99.90;;;;;;5032269;28;20178;-35
2022/06/09 02:19:44;;;;;;;0.60;0.50;;;15.00;99.90;;;;;;5015839;28;20185;-36
2022/06/09 02:22:12;;;;;;;0.60;0.60;;;15.00;99.90;;;;;;5032230;28;20186;-36
2022/06/09 02:24:38;;;;;;;0.90;0.60;;;14.90;99.90;;;;;;5054336;28;20185;-35
2022/06/09 02:27:05;;;;;;;2.37;0.70;;;14.90;99.90;;;;;;5035542;28;20212;-35
2022/06/09 02:29:32;;;;;;;0.70;0.70;;;14.90;99.90;;;;;;5073235;28;20192;-35
2022/06/09 02:31:58;;;;;;;0.90;0.50;;;15.00;99.90;;;;;;5039481;28;20185;-35
2022/06/09 02:34:24;;;;;;;0.70;0.70;;;15.00;99.90;;;;;;5055576;28;20207;-36
2022/06/09 02:36:50;;;;;;;1.37;0.50;;;15.00;99.90;;;;;;5039138;28;20181;-35
2022/06/09 02:39:16;;;;;;;0.60;0.60;;;15.00;99.90;;;;;;5055905;28;20185;-35
2022/06/09 02:41:42;;;;;;;1.53;0.67;;;14.90;99.90;;;;;;5055768;28;20201;-35
2022/06/09 02:44:09;;;;;;;1.43;0.57;;;14.90;99.90;;;;;;5038391;28;20204;-35
2022/06/09 02:46:35;;;;;;;2.67;0.80;;;14.90;99.90;;;;;;5055709;28;20172;-35
2022/06/09 02:49:00;;;;;;;1.73;0.70;;;14.90;99.90;;;;;;5038966;28;20177;-34
2022/06/09 02:51:33;;;;;;;0.70;0.70;;;14.90;99.90;;;;;;5055817;28;20169;-38
2022/06/09 02:54:02;;;;;;;1.30;0.70;;;14.80;99.90;;;;;;5054497;28;20198;-35
2022/06/09 02:56:28;;;;;;;1.03;0.60;;;14.80;99.90;;;;;;5055148;28;20201;-35
2022/06/09 02:58:56;;;;;;;0.60;0.60;;;14.80;99.90;;;;;;5055379;28;20245;-35
2022/06/09 03:01:23;;;;;;;1.47;0.70;;;14.80;99.90;;;;;;5041261;28;20231;-35
2022/06/09 03:03:49;;;;;;;3.73;0.80;;;14.80;99.90;;;;;;5038435;28;20218;-37
2022/06/09 03:06:15;;;;;;;1.33;0.90;;;14.80;99.90;;;;;;5038492;28;20201;-40
2022/06/09 03:08:41;;;;;;;2.40;0.70;;;14.80;99.90;;;;;;5038510;28;20280;-36
2022/06/09 03:11:10;;;;;;;1.00;0.73;;;14.70;99.90;;;;;;5038164;28;20264;-35
2022/06/09 03:13:38;;;;;;;1.43;0.73;;;14.70;99.90;;;;;;5054846;28;20284;-36
2022/06/09 03:16:05;;;;;;;1.33;0.83;;;14.60;99.90;;;;;;5038084;28;20292;-36
2022/06/09 03:18:32;;;;;;;1.73;1.00;;;14.70;99.90;;;;;;5038425;28;20170;-35
2022/06/09 03:20:58;;;;;;;1.40;0.90;;;14.70;99.90;;;;;;5038082;28;20229;-36
2022/06/09 03:23:23;;;;;;;2.20;1.00;;;14.70;99.90;;;;;;5038192;28;20224;-35
2022/06/09 03:28:41;;;;;;;1.93;0.90;;;14.70;99.90;;;;;;5011224;28;21122;-91
2022/06/09 03:31:07;;;;;;;1.97;1.17;;;14.70;99.90;;;;;;5012031;28;20207;-91
2022/06/09 03:33:33;;;;;;;1.23;0.83;;;14.80;99.90;;;;;;4979526;28;20182;-91
2022/06/09 03:36:00;;;;;;;1.60;1.00;;;14.80;99.90;;;;;;4995714;28;20204;-91
2022/06/09 03:38:26;;;;;;;1.87;1.10;;;14.70;99.90;;;;;;4995395;28;20183;-91
2022/06/09 03:40:52;;;;;;;2.40;1.07;;;14.70;99.90;;;;;;4994785;28;20294;-92
2022/06/09 03:43:18;;;;;;;2.80;1.03;;;14.70;99.90;;;;;;4995073;28;20274;-91
2022/06/09 03:45:44;;;;;;;1.73;1.00;;;14.70;99.90;;;;;;4994872;28;20205;-91
2022/06/09 03:48:10;;;;;;;1.83;1.10;;;14.70;99.90;;;;;;5011384;28;20187;-91
2022/06/09 03:50:36;;;;;;;5.43;1.30;;;14.60;99.90;;;;;;4995218;28;20190;-91
2022/06/09 03:53:02;;;;;;;2.07;0.97;;;14.70;99.90;;;;;;4978870;28;20187;-92
2022/06/09 03:55:28;;;;;;;2.73;1.10;;;14.70;99.90;;;;;;4978837;28;20195;-91
2022/06/09 03:57:54;;;;;;;1.70;1.00;;;14.70;99.90;;;;;;4995177;28;20183;-91
2022/06/09 04:00:23;;;;;;;2.73;1.07;;;14.80;99.90;;;;;;4995178;28;20218;-91
2022/06/09 04:02:49;;;;;;;4.30;1.50;;;14.80;99.90;;;;;;5011246;28;20183;-91
2022/06/09 04:05:15;;;;;;;1.83;1.10;;;14.80;99.90;;;;;;4994870;28;20699;-91
2022/06/09 04:07:41;;;;;;;1.87;1.30;;;14.80;99.90;;;;;;4994741;28;20238;-92
2022/06/09 04:10:12;;;;;;;2.37;1.13;;;14.80;99.90;;;;;;5011462;28;20210;-90
2022/06/09 04:12:38;;;;;;;3.60;1.30;;;14.70;99.90;;;;;;5011172;28;20205;-91
2022/06/09 04:15:05;;;;;;;2.37;1.40;;;14.70;99.90;;;;;;5011303;28;20274;-91
2022/06/09 04:17:31;;;;;;;2.80;1.10;;;14.70;99.90;;;;;;5011110;28;20183;-91
2022/06/09 04:19:57;;;;;;;6.40;1.47;;;14.70;99.90;;;;;;4994464;28;20179;-91
2022/06/09 04:22:23;;;;;;;1.63;1.17;;;14.70;99.90;;;;;;4994806;28;20207;-92
2022/06/09 04:24:49;;;;;;;2.23;1.10;;;14.70;99.90;;;;;;4994328;28;20186;-91
2022/06/09 04:27:14;;;;;;;1.67;1.10;;;14.70;99.90;;;;;;5010951;28;20226;-91
2022/06/09 04:29:41;;;;;;;2.43;1.00;;;14.60;99.90;;;;;;5010775;28;20235;-91
2022/06/09 04:32:07;;;;;;;3.23;1.60;;;14.60;99.90;;;;;;5010703;28;20238;-91
2022/06/09 04:34:33;;;;;;;1.10;1.00;;;14.60;99.90;;;;;;5010333;28;20175;-91
2022/06/09 04:36:59;;;;;;;2.67;1.30;;;14.60;99.90;;;;;;5010875;28;20182;-91
2022/06/09 04:39:25;;;;;;;4.27;1.43;;;14.60;99.90;;;;;;5010634;28;20243;-91
2022/06/09 04:41:50;;;;;;;3.83;1.43;;;14.60;99.90;;;;;;4993980;28;20221;-91
2022/06/09 04:44:16;;;;;;;2.53;1.30;;;14.60;99.90;;;;;;5010547;28;20176;-91
2022/06/09 04:46:42;;;;;;;2.73;1.30;;;14.60;99.90;;;;;;5010637;28;20187;-91
2022/06/09 04:49:08;;;;;;;2.50;1.70;;;14.50;99.90;;;;;;4994235;28;20211;-91
2022/06/09 04:51:34;;;;;;;2.47;1.13;;;14.50;99.90;;;;;;5010352;28;20549;-91
2022/06/09 04:54:00;;;;;;;1.70;1.23;;;14.50;99.90;;;;;;4994385;28;20190;-91
2022/06/09 04:56:26;;;;;;;4.50;1.50;;;14.60;99.90;;;;;;4994031;28;20179;-91
2022/06/09 04:58:52;;;;;;;3.43;1.37;;;14.60;99.90;;;;;;5010354;28;20247;-91
2022/06/09 05:01:20;;;;;;;3.67;1.30;;;14.60;99.90;;;;;;4994014;28;20214;-91
2022/06/09 05:03:47;;;;;;;3.07;1.50;;;14.60;99.90;;;;;;4994392;28;20183;-91
2022/06/09 05:06:13;;;;;;;4.30;1.70;;;14.60;99.90;;;;;;5010730;28;20175;-91
2022/06/09 05:08:40;;;;;;;3.80;1.67;;;14.60;99.90;;;;;;4994174;28;20183;-91
2022/06/09 05:11:06;;;;;;;3.97;1.50;;;14.60;99.90;;;;;;4993967;28;20206;-92
2022/06/09 05:13:32;;;;;;;2.47;1.63;;;14.70;99.90;;;;;;5010258;28;20179;-91
2022/06/09 05:15:58;;;;;;;2.47;1.23;;;14.70;99.90;;;;;;4993841;28;20250;-91
2022/06/09 05:18:27;;;;;;;4.87;1.63;;;14.70;99.90;;;;;;4994259;28;20179;-92
2022/06/09 05:20:56;;;;;;;4.33;1.40;;;14.70;99.90;;;;;;5009822;28;20210;-91
2022/06/09 05:23:23;;;;;;;3.07;1.40;;;14.70;99.90;;;;;;5010256;28;20181;-91
2022/06/09 05:25:51;;;;;;;6.57;1.87;;;14.70;99.90;;;;;;4993917;28;20640;-91
2022/06/09 05:28:18;;;;;;;2.30;1.60;;;14.70;99.90;;;;;;4993823;28;20227;-91
2022/06/09 05:30:45;;;;;;;2.63;1.40;;;14.80;99.90;;;;;;4993494;28;20218;-91
2022/06/09 05:33:12;;;;;;;2.20;1.40;;;14.80;99.90;;;;;;4993600;28;20187;-92
2022/06/09 05:35:39;;;;;;;3.47;1.67;;;14.80;99.90;;;;;;4993466;28;20194;-91
2022/06/09 05:46:20;;;;;;;6.13;1.60;;;14.90;99.90;;;;;;5009994;28;20233;-91
2022/06/09 05:48:47;;;;;;;3.80;1.57;;;14.90;99.90;;;;;;4993327;28;20175;-91
2022/06/09 05:51:14;;;;;;;3.63;1.20;;;14.90;99.90;;;;;;4993525;28;20203;-92
2022/06/09 05:53:41;;;;;;;3.27;1.50;;;14.90;99.90;;;;;;4993697;28;20183;-91
2022/06/09 05:56:07;;;;;;;2.50;1.27;;;14.90;99.90;;;;;;4977511;28;20270;-91
2022/06/09 05:58:35;;;;;;;5.00;1.50;;;15.00;99.90;;;;;;4993422;28;20219;-91
2022/06/09 06:01:03;;;;;;;3.33;1.50;;;14.90;99.90;;;;;;4993653;28;20218;-91
2022/06/09 06:03:29;;;;;;;2.87;1.63;;;14.90;99.90;;;;;;4995447;28;20191;-92
2022/06/09 06:08:40;;;;;;;3.60;1.40;;;15.00;99.90;;;;;;5013486;28;20180;-91
2022/06/09 06:11:06;;;;;;;1.97;1.13;;;15.00;99.90;;;;;;4997438;28;20213;-91
2022/06/09 06:13:32;;;;;;;4.60;1.57;;;15.00;99.90;;;;;;4997087;28;20216;-91
2022/06/09 06:15:58;;;;;;;3.30;1.50;;;15.00;99.90;;;;;;4996880;28;20206;-92
2022/06/09 06:18:24;;;;;;;3.03;1.43;;;15.00;99.90;;;;;;4997535;28;20184;-92
2022/06/09 06:20:51;;;;;;;3.07;1.40;;;15.00;99.90;;;;;;4997496;28;20242;-91
2022/06/09 06:23:17;;;;;;;2.30;1.27;;;15.10;99.90;;;;;;4998201;28;20210;-91
2022/06/09 06:25:43;;;;;;;2.60;1.10;;;15.10;99.90;;;;;;4982105;28;20273;-91
2022/06/09 06:28:09;;;;;;;2.33;1.30;;;15.10;99.90;;;;;;4982129;28;20205;-91
2022/06/09 06:30:35;;;;;;;4.77;1.60;;;15.10;99.90;;;;;;4998164;28;20240;-91
2022/06/09 06:33:00;;;;;;;2.47;1.40;;;15.10;99.90;;;;;;4997421;28;20249;-91
2022/06/09 06:35:26;;;;;;;4.07;1.53;;;15.10;99.90;;;;;;4997214;28;20187;-91
2022/06/09 06:37:52;;;;;;;3.47;1.33;;;15.10;99.90;;;;;;4980500;28;20179;-91
2022/06/09 06:40:18;;;;;;;2.47;1.40;;;15.20;99.90;;;;;;4996785;28;20214;-91
2022/06/09 06:42:44;;;;;;;3.47;1.50;;;15.30;99.90;;;;;;4996820;28;20207;-92
2022/06/09 06:45:13;;;;;;;2.50;1.43;;;15.50;99.90;;;;;;4996312;28;20253;-91
2022/06/09 06:47:39;;;;;;;6.13;1.50;;;15.70;99.90;;;;;;4980414;28;20203;-91
2022/06/09 06:50:06;;;;;;;3.33;1.33;;;15.90;99.90;;;;;;4980329;28;20186;-91
2022/06/09 06:52:33;;;;;;;3.77;1.43;;;16.10;99.90;;;;;;4980351;28;20282;-91
2022/06/09 06:54:58;;;;;;;1.83;1.20;;;16.20;99.90;;;;;;4980102;28;20183;-91
2022/06/09 06:57:25;;;;;;;3.93;1.67;;;16.30;99.90;;;;;;4996001;28;20215;-91
2022/06/09 06:59:51;;;;;;;1.97;1.20;;;16.30;99.90;;;;;;4996531;28;20183;-91
2022/06/09 07:02:18;;;;;;;3.63;1.40;;;16.30;99.90;;;;;;4996157;28;20218;-91
2022/06/09 07:04:45;;;;;;;3.53;1.13;;;16.30;99.90;;;;;;5012245;28;20188;-91
2022/06/09 07:07:11;;;;;;;5.30;1.53;;;16.40;99.90;;;;;;4995940;28;20222;-92
2022/06/09 07:09:37;;;;;;;3.50;1.60;;;16.40;99.90;;;;;;4995774;28;20234;-91
2022/06/09 07:12:04;;;;;;;3.80;1.57;;;16.60;99.90;;;;;;5012049;28;20549;-91
2022/06/09 07:14:33;;;;;;;4.73;1.40;;;16.60;99.90;;;;;;4980126;28;20187;-91
2022/06/09 07:17:00;;;;;;;3.13;1.10;;;16.60;99.90;;;;;;4996250;28;20221;-91
2022/06/09 07:19:26;;;;;;;4.57;1.20;;;16.60;99.90;;;;;;4996059;28;20187;-91
2022/06/09 07:21:53;;;;;;;2.67;1.27;;;16.60;99.90;;;;;;4995836;28;20218;-91
2022/06/09 07:24:19;;;;;;;4.57;1.43;;;16.80;99.90;;;;;;4995972;28;20266;-91
2022/06/09 07:26:45;;;;;;;3.70;1.30;;;17.00;99.90;;;;;;4996206;28;20183;-91
2022/06/09 07:29:11;;;;;;;4.47;1.00;;;17.20;99.90;;;;;;4996179;28;20262;-91
2022/06/09 07:31:37;;;;;;;3.50;1.10;;;17.40;99.90;;;;;;5011807;28;20340;-91
2022/06/09 07:34:04;;;;;;;5.65;1.30;;;17.40;99.90;;;;;;4995326;28;20176;-91
2022/06/09 07:36:31;;;;;;;3.50;1.30;;;17.50;99.90;;;;;;4994843;28;20233;-91
2022/06/09 07:38:57;;;;;;;4.13;1.13;;;17.60;99.90;;;;;;4995179;28;20186;-91
2022/06/09 07:41:23;;;;;;;4.80;1.35;;;17.70;99.90;;;;;;4995611;28;20302;-91
2022/06/09 07:43:50;;;;;;;4.00;1.40;;;17.80;99.90;;;;;;4995060;28;20171;-91
2022/06/09 07:46:17;;;;;;;3.25;1.17;;;17.80;99.90;;;;;;4995128;28;20179;-92
2022/06/09 07:48:45;;;;;;;5.53;1.30;;;18.10;99.90;;;;;;4979132;28;20210;-91
2022/06/09 07:51:11;;;;;;;2.92;1.05;;;18.20;99.90;;;;;;4979247;28;20213;-91
2022/06/09 07:53:37;;;;;;;2.38;0.90;;;18.10;99.90;;;;;;4979316;28;20219;-91
2022/06/09 07:56:04;;;;;;;2.38;0.90;;;18.10;99.90;;;;;;5011795;28;20176;-92
2022/06/09 07:58:30;;;;;;;4.18;1.00;;;18.30;99.90;;;;;;5011694;28;20199;-92
2022/06/09 08:00:56;;;;;;;4.18;1.25;;;18.30;99.90;;;;;;4994384;28;20215;-91
2022/06/09 08:03:26;;;;;;;4.88;1.42;;;18.50;99.90;;;;;;4978861;28;20190;-92
2022/06/09 08:05:53;;;;;;;3.42;1.00;;;18.70;99.90;;;;;;4994730;28;20262;-91
2022/06/09 08:08:20;;;;;;;4.38;1.00;;;18.80;99.90;;;;;;5009722;28;20195;-95
2022/06/09 08:10:47;;;;;;;4.07;1.30;;;18.60;99.90;;;;;;5004859;28;20286;-90
2022/06/09 08:13:14;;;;;;;4.50;1.20;;;18.40;99.90;;;;;;4994825;28;20188;-91
2022/06/09 08:15:43;;;;;;;1.85;0.95;;;18.30;99.90;;;;;;4978545;28;20183;-92
2022/06/09 08:18:09;;;;;;;3.80;1.15;;;18.50;99.90;;;;;;4994514;28;20183;-91
2022/06/09 08:20:38;;;;;;;3.58;1.10;;;18.70;99.90;;;;;;4994451;28;20206;-91
2022/06/09 08:23:10;;;;;;;2.95;1.00;;;19.10;99.90;;;;;;4978402;28;20198;-91
2022/06/09 08:25:38;;;;;;;3.17;0.90;;;19.30;99.90;;;;;;4985649;28;20183;-91
2022/06/09 08:28:04;;;;;;;2.28;0.98;;;19.50;99.90;;;;;;4978661;28;20666;-91
2022/06/09 08:30:32;;;;;;;4.10;0.85;;;19.60;99.90;;;;;;4978269;28;20191;-91
2022/06/09 08:32:58;;;;;;;2.67;0.95;;;19.80;99.90;;;;;;4978307;28;20193;-91
2022/06/09 08:35:25;;;;;;;4.15;1.00;;;19.80;99.90;;;;;;4978730;28;20250;-91
2022/06/09 08:37:52;;;;;;;4.13;1.10;;;19.80;99.90;;;;;;4978251;28;20195;-92
2022/06/09 08:40:29;;;;;;;4.60;1.25;;;19.40;99.90;;;;;;4977950;28;20219;-91
2022/06/09 08:43:13;;;;;;;2.60;1.00;;;19.50;99.90;;;;;;4994199;28;20187;-91
2022/06/09 08:45:42;;;;;;;2.20;1.10;;;19.80;99.90;;;;;;4978517;28;20178;-91
2022/06/09 08:48:18;;;;;;;3.35;0.82;;;19.60;99.90;;;;;;4978027;28;20187;-91
2022/06/09 08:51:09;;;;;;;2.10;1.00;;;19.90;99.90;;;;;;4978063;28;20257;-91
2022/06/09 08:53:41;;;;;;;3.55;1.00;;;20.00;99.90;;;;;;4977486;28;20183;-91
2022/06/09 08:56:39;;;;;;;2.40;0.90;;;20.10;99.90;;;;;;4978263;28;20188;-91
2022/06/09 08:59:13;;;;;;;3.15;1.20;;;20.00;99.90;;;;;;4981145;28;20191;-91
2022/06/09 09:01:49;;;;;;;3.42;1.10;;;19.70;99.90;;;;;;5010401;28;20203;-92
2022/06/09 09:04:25;;;;;;;3.17;0.95;;;19.60;99.90;;;;;;5010325;28;20171;-91
2022/06/09 09:06:56;;;;;;;1.52;0.90;;;19.10;99.90;;;;;;5010244;28;20187;-91
2022/06/09 09:09:31;;;;;;;3.15;1.02;;;18.90;99.90;;;;;;5010706;28;20202;-91
2022/06/09 09:12:11;;;;;;;2.72;1.08;;;19.10;99.90;;;;;;5010499;28;20297;-91
2022/06/09 09:14:56;;;;;;;3.13;0.95;;;19.40;99.90;;;;;;4977914;28;20213;-91
2022/06/09 09:17:48;;;;;;;3.33;0.90;;;19.80;99.90;;;;;;5010628;28;20183;-91
2022/06/09 09:20:24;;;;;;;2.30;0.90;;;20.10;99.90;;;;;;4984149;28;20191;-91
2022/06/09 09:23:02;;;;;;;2.85;0.98;;;20.20;99.90;;;;;;5010075;28;20189;-91
2022/06/09 09:25:49;;;;;;;2.35;1.10;;;20.50;99.90;;;;;;4993968;28;20183;-92
2022/06/09 09:28:18;;;;;;;1.40;0.77;;;20.60;99.90;;;;;;4977688;28;20179;-91
2022/06/09 09:31:08;;;;;;;1.48;0.77;;;20.50;99.90;;;;;;4993975;28;20199;-91
2022/06/09 09:33:35;;;;;;;2.20;1.15;;;20.60;99.90;;;;;;4993775;28;20225;-91
2022/06/09 09:36:27;;;;;;;2.13;0.90;;;20.50;99.90;;;;;;4977715;28;20191;-91
2022/06/09 09:39:01;;;;;;;3.38;0.90;;;20.40;99.90;;;;;;4979851;28;20187;-92
2022/06/09 09:41:33;;;;;;;2.90;0.80;;;20.30;99.90;;;;;;4981369;28;20214;-91
2022/06/09 09:44:12;;;;;;;1.50;0.68;;;20.20;99.90;;;;;;4997438;28;20183;-91
2022/06/09 09:46:40;;;;;;;2.85;0.90;;;20.10;99.90;;;;;;4997482;28;20187;-92
2022/06/09 09:49:18;;;;;;;3.20;1.00;;;20.40;99.90;;;;;;4981275;28;20183;-91
2022/06/09 09:51:44;;;;;;;1.83;0.75;;;20.70;99.90;;;;;;4981500;28;20206;-92
2022/06/09 09:54:26;;;;;;;1.48;0.68;;;20.50;99.90;;;;;;4997790;28;20179;-91
2022/06/09 09:57:14;;;;;;;2.72;1.00;;;20.70;99.90;;;;;;4998088;28;20183;-92
2022/06/09 09:59:55;;;;;;;1.88;0.80;;;21.10;99.90;;;;;;4982249;28;20256;-91
2022/06/09 10:14:29;;;;;;;3.40;0.80;;;21.90;99.90;;;;;;4997114;28;20191;-91
2022/06/09 10:16:56;;;;;;;1.75;0.90;;;22.20;99.90;;;;;;4996917;28;20187;-91
2022/06/09 10:19:26;;;;;;;2.30;0.98;;;22.50;99.90;;;;;;4980835;28;20184;-91
2022/06/09 10:21:58;;;;;;;2.60;0.70;;;22.30;99.90;;;;;;4980663;28;20285;-91
2022/06/09 10:24:37;;;;;;;1.55;0.75;;;22.10;99.90;;;;;;4982806;28;20185;-91
2022/06/09 10:27:06;;;;;;;2.95;1.00;;;21.80;99.90;;;;;;5016792;28;20174;-92
2022/06/09 10:29:45;;;;;;;2.58;0.80;;;21.40;99.90;;;;;;5016516;28;20636;-91
2022/06/09 10:32:28;;;;;;;2.92;0.90;;;21.50;99.90;;;;;;5016516;28;20214;-91
2022/06/09 10:35:22;;;;;;;2.80;0.90;;;21.70;99.90;;;;;;5016053;28;20186;-92
2022/06/09 10:37:53;;;;;;;1.45;1.00;;;22.10;99.90;;;;;;5033152;28;20586;-91
2022/06/09 10:40:49;;;;;;;3.75;1.13;;;22.20;99.90;;;;;;5032882;28;20182;-91
2022/06/09 10:43:26;;;;;;;2.78;0.95;;;22.30;99.90;;;;;;5016653;28;20178;-91
2022/06/09 10:46:00;;;;;;;3.17;1.00;;;22.20;99.90;;;;;;5032955;28;20239;-91
2022/06/09 10:57:57;;;;;;;4.63;1.10;;;22.30;99.90;;;;;;4996247;28;20192;-91
2022/06/09 11:00:31;;;;;;;4.28;1.25;;;22.30;99.90;;;;;;4956560;28;20215;-91
2022/06/09 11:03:02;;;;;;;3.17;1.05;;;22.30;99.90;;;;;;4980392;28;20163;-91
2022/06/09 11:06:12;;;;;;;3.65;1.02;;;21.60;99.90;;;;;;4980186;28;20278;-91
2022/06/09 11:08:49;;;;;;;3.35;1.40;;;21.30;99.90;;;;;;4992736;28;20194;-92
2022/06/09 11:11:41;;;;;;;4.93;1.10;;;20.90;99.90;;;;;;4979931;28;20210;-91
2022/06/09 11:14:07;;;;;;;3.83;1.33;;;20.80;99.90;;;;;;4980155;28;20735;-92
2022/06/09 11:16:46;;;;;;;3.10;1.08;;;20.50;99.90;;;;;;5012575;28;20250;-91
2022/06/09 11:19:28;;;;;;;3.42;1.05;;;20.50;99.90;;;;;;4995847;28;20230;-91
2022/06/09 11:22:26;;;;;;;2.90;1.10;;;20.10;99.90;;;;;;4979521;28;20217;-91
2022/06/09 11:25:17;;;;;;;2.63;1.10;;;20.20;99.90;;;;;;4946128;28;20330;-91
2022/06/09 11:28:17;;;;;;;3.13;1.15;;;20.30;99.90;;;;;;4995346;28;20183;-92
2022/06/09 11:31:21;;;;;;;3.28;1.00;;;20.20;99.90;;;;;;4979004;28;20290;-92
2022/06/09 11:34:02;;;;;;;5.55;1.35;;;20.20;99.90;;;;;;4979556;28;20214;-91
2022/06/09 11:36:34;;;;;;;4.03;1.30;;;20.00;99.90;;;;;;4979883;28;20172;-91
2022/06/09 11:39:46;;;;;;;3.47;1.40;;;20.00;99.90;;;;;;4996015;28;20175;-91
2022/06/09 11:42:19;;;;;;;1.98;1.10;;;19.90;99.90;;;;;;4961200;28;20284;-91
2022/06/09 11:44:48;;;;;;;2.53;0.98;;;19.80;99.90;;;;;;4995381;28;20253;-91
2022/06/09 11:47:16;;;;;;;2.78;1.17;;;19.50;99.90;;;;;;4995429;28;20187;-91
2022/06/09 11:49:53;;;;;;;4.30;1.23;;;19.30;99.90;;;;;;4995496;28;20183;-91
2022/06/09 11:52:28;;;;;;;3.17;1.15;;;19.20;99.90;;;;;;4979164;28;20198;-91
2022/06/09 11:54:58;;;;;;;2.33;1.20;;;19.20;99.90;;;;;;4979327;28;20182;-91
2022/06/09 11:57:39;;;;;;;2.47;1.00;;;19.00;99.90;;;;;;4979043;28;20242;-91
2022/06/09 12:00:23;;;;;;;2.67;1.05;;;19.10;99.90;;;;;;4978341;28;20171;-91
2022/06/09 12:03:08;;;;;;;3.25;1.10;;;19.20;99.90;;;;;;4978931;28;20217;-92
2022/06/09 12:06:01;;;;;;;3.08;1.27;;;19.30;99.90;;;;;;4995049;28;20266;-91
2022/06/09 12:08:51;;;;;;;3.83;1.33;;;19.30;99.90;;;;;;4995643;28;20171;-91
2022/06/09 12:11:24;;;;;;;3.97;1.60;;;19.40;99.90;;;;;;4999511;28;20238;-94
2022/06/09 12:14:15;;;;;;;3.60;1.20;;;19.70;99.90;;;;;;5011881;28;20183;-92
2022/06/09 12:17:08;;;;;;;2.40;1.20;;;19.90;99.90;;;;;;4978769;28;20183;-91
2022/06/09 12:19:50;;;;;;;2.25;1.00;;;20.00;99.90;;;;;;4994888;28;20229;-91
2022/06/09 12:22:45;;;;;;;2.42;1.20;;;20.40;99.90;;;;;;4994559;28;20215;-91
2022/06/09 12:25:11;;;;;;;2.75;1.30;;;20.70;99.90;;;;;;4967879;28;20196;-92
2022/06/09 12:27:37;;;;;;;3.05;1.20;;;21.00;99.90;;;;;;4978405;28;20622;-91
2022/06/09 12:30:02;;;;;;;4.28;1.33;;;20.80;99.90;;;;;;4978431;28;20189;-91
2022/06/09 12:32:52;;;;;;;3.05;1.05;;;20.50;99.90;;;;;;4978496;28;20218;-92
2022/06/09 12:35:50;;;;;;;2.40;0.95;;;20.30;99.90;;;;;;4978304;28;20188;-91
2022/06/09 12:38:18;;;;;;;2.88;1.17;;;19.60;99.90;;;;;;4973930;28;20195;-91
2022/06/09 12:40:52;;;;;;;1.42;0.90;;;19.10;99.90;;;;;;4978303;28;20211;-91
2022/06/09 12:43:42;;;;;;;1.95;1.20;;;18.80;99.90;;;;;;4994825;28;20170;-91
2022/06/09 12:46:28;;;;;;;4.97;0.90;;;18.60;99.90;;;;;;4978115;28;20234;-91
2022/06/09 12:48:54;;;;;;;2.75;1.08;;;18.40;99.90;;;;;;4994298;28;20179;-90
2022/06/09 12:51:31;;;;;;;1.85;0.88;;;18.20;99.90;;;;;;4978762;28;20314;-91
2022/06/09 12:54:07;;;;;;;2.40;1.08;;;17.90;99.90;;;;;;4978615;28;20228;-92
2022/06/09 12:56:41;;;;;;;4.93;1.40;;;17.80;99.90;;;;;;4994543;28;20183;-91
2022/06/09 12:59:34;;;;;;;2.15;1.00;;;17.70;99.90;;;;;;4978235;28;20183;-91
2022/06/09 13:02:18;;;;;;;4.85;1.27;;;17.60;99.90;;;;;;4994053;28;20215;-91
2022/06/09 13:05:10;;;;;;;4.15;1.40;;;17.60;99.90;;;;;;4978113;28;20211;-91
2022/06/09 13:08:19;;;;;;;2.95;1.30;;;17.60;99.90;;;;;;4957883;28;20195;-91
2022/06/09 13:10:55;;;;;;;4.63;1.42;;;18.00;99.90;;;;;;5009791;28;20215;-91
2022/06/09 13:13:40;;;;;;;2.78;1.40;;;18.70;99.90;;;;;;4977606;28;20359;-91
2022/06/09 13:16:22;;;;;;;3.38;1.33;;;19.30;99.90;;;;;;4977883;28;20191;-91
2022/06/09 13:18:55;;;;;;;3.33;0.88;;;19.70;99.90;;;;;;4977741;28;20175;-91
2022/06/09 13:21:24;;;;;;;3.53;1.00;;;20.10;99.90;;;;;;4977620;28;20226;-91
2022/06/09 13:23:54;;;;;;;1.63;0.90;;;20.20;99.90;;;;;;4977771;28;20211;-91
2022/06/09 13:26:26;;;;;;;3.45;0.98;;;20.60;99.90;;;;;;4987940;28;20187;-91
2022/06/09 13:28:59;;;;;;;6.80;1.20;;;21.00;99.90;;;;;;4994351;28;20186;-91
2022/06/09 13:31:31;;;;;;;3.67;1.05;;;21.00;99.90;;;;;;5007127;28;20307;-91
2022/06/09 13:34:19;;;;;;;3.17;1.20;;;21.10;99.90;;;;;;5000196;28;20199;-91
2022/06/09 13:36:54;;;;;;;3.97;0.95;;;21.10;99.90;;;;;;4992294;28;20184;-92
2022/06/09 13:39:32;;;;;;;1.92;0.95;;;21.10;99.90;;;;;;4994946;28;20190;-91
2022/06/09 13:42:06;;;;;;;3.83;0.93;;;21.00;99.90;;;;;;4995299;28;20214;-91
2022/06/09 13:44:55;;;;;;;3.03;0.80;;;21.10;99.90;;;;;;4995273;28;20181;-92
2022/06/09 13:47:27;;;;;;;1.33;0.90;;;21.20;99.90;;;;;;4988063;28;20200;-92
2022/06/09 13:50:17;;;;;;;1.40;0.70;;;21.40;99.90;;;;;;5010628;28;20209;-91